Time;durP1;ratioP1;P1;durP2;ratioP2;P2;SDS_P1;SDS_P2;PMS_P1;PMS_P2;Temp;Humidity;BMP_temperature;BMP_pressure;BME280_temperature;BME280_humidity;BME280_pressure;Samples;Min_cycle;Max_cycle;Signal;HPM_P1;HPM_P2
2023/08/25 09:49:43;;;;;;;11.10;6.12;;;;;;;25.77;57.00;99922.77;1867574;76;27867;-39
2023/08/25 09:52:13;;;;;;;12.73;6.97;;;;;;;25.61;56.36;99917.11;1824342;78;25526;-41
2023/08/25 09:54:42;;;;;;;16.40;6.97;;;;;;;25.51;56.68;99911.95;1824495;78;28100;-40
2023/08/25 09:57:11;;;;;;;8.95;6.15;;;;;;;25.47;56.75;99905.67;1824299;78;25434;-40
2023/08/25 09:59:38;;;;;;;7.47;5.35;;;;;;;25.42;56.15;99905.56;1824617;78;25428;-40
2023/08/25 10:02:05;;;;;;;11.45;6.08;;;;;;;25.30;54.88;99894.48;1824370;78;25558;-40
2023/08/25 10:04:34;;;;;;;8.47;5.50;;;;;;;25.17;54.85;99899.00;1824501;78;25475;-40
2023/08/25 10:07:05;;;;;;;10.03;5.60;;;;;;;25.08;53.80;99892.61;1824689;78;28234;-40
2023/08/25 10:09:34;;;;;;;11.65;5.55;;;;;;;25.00;54.02;99895.30;1824316;78;25584;-40
2023/08/25 10:12:04;;;;;;;8.13;5.37;;;;;;;24.98;53.94;99894.94;1824683;78;25570;-40
2023/08/25 10:14:34;;;;;;;5.92;5.20;;;;;;;24.91;53.80;99894.44;1824324;78;25413;-41
2023/08/25 10:17:06;;;;;;;9.15;5.55;;;;;;;24.84;54.04;99894.51;1824404;78;25619;-40
2023/08/25 10:19:36;;;;;;;6.83;5.80;;;;;;;24.79;53.79;99883.91;1824400;78;28275;-41
2023/08/25 10:22:06;;;;;;;10.32;5.87;;;;;;;24.71;53.79;99881.86;1824341;78;25765;-40
2023/08/25 10:24:38;;;;;;;7.10;5.28;;;;;;;24.65;54.04;99877.20;1824347;78;25522;-41
2023/08/25 10:27:08;;;;;;;7.20;5.78;;;;;;;24.58;53.83;99880.23;1824440;78;25453;-40
2023/08/25 10:29:39;;;;;;;7.70;5.62;;;;;;;24.56;54.10;99876.34;1824479;78;25367;-40
2023/08/25 10:32:11;;;;;;;11.08;5.95;;;;;;;24.49;54.19;99884.09;1824043;78;27444;-41
2023/08/25 10:34:51;;;;;;;6.35;5.50;;;;;;;24.47;54.37;99878.20;1803645;78;25579;-40
2023/08/25 10:37:26;;;;;;;7.58;5.65;;;;;;;24.38;54.54;99881.47;1823431;78;25602;-40
2023/08/25 10:40:02;;;;;;;12.85;6.08;;;;;;;24.31;54.09;99882.13;1791859;80;25559;-40
2023/08/25 10:42:34;;;;;;;8.00;5.97;;;;;;;24.20;54.11;99878.89;1790944;79;25617;-40
2023/08/25 10:45:11;;;;;;;8.73;5.47;;;;;;;24.13;54.33;99881.75;1791958;80;27490;-41
2023/08/25 10:47:48;;;;;;;7.75;5.67;;;;;;;24.08;54.49;99870.38;1798731;79;25818;-40
2023/08/25 10:50:22;;;;;;;7.00;5.83;;;;;;;24.04;55.28;99880.86;1772151;80;25482;-40
2023/08/25 10:52:52;;;;;;;7.37;5.85;;;;;;;24.01;54.83;99873.39;1791804;80;25529;-40
2023/08/25 10:55:32;;;;;;;8.30;5.85;;;;;;;23.99;54.91;99868.08;1791920;80;25577;-41
2023/08/25 10:58:06;;;;;;;8.20;5.70;;;;;;;23.96;54.86;99869.69;1791909;80;27394;-40
2023/08/25 11:00:47;;;;;;;10.88;6.22;;;;;;;23.96;55.08;99873.06;1791402;79;25648;-41
2023/08/25 11:03:15;;;;;;;7.62;6.00;;;;;;;23.97;55.16;99880.94;1791376;80;25523;-40
2023/08/25 11:05:45;;;;;;;9.15;5.97;;;;;;;23.99;55.25;99881.88;1791476;79;25439;-40
2023/08/25 11:08:28;;;;;;;9.30;6.08;;;;;;;23.98;55.19;99877.57;1791384;80;25575;-41
2023/08/25 11:11:14;;;;;;;8.95;6.30;;;;;;;24.01;55.35;99885.81;1791416;80;28607;-40
2023/08/25 11:13:43;;;;;;;8.95;6.05;;;;;;;23.97;55.08;99898.89;1791257;80;25951;-40
2023/08/25 11:16:14;;;;;;;9.48;6.08;;;;;;;23.93;55.41;99896.75;1791411;79;25617;-41
2023/08/25 11:18:44;;;;;;;9.70;6.20;;;;;;;23.93;55.39;99899.51;1791285;80;25477;-40
2023/08/25 11:21:14;;;;;;;13.88;6.50;;;;;;;23.91;55.55;99905.27;1791370;80;25562;-41
2023/08/25 11:23:46;;;;;;;12.28;6.08;;;;;;;23.84;55.67;99895.08;1791303;80;27489;-40
2023/08/25 11:26:19;;;;;;;8.75;6.17;;;;;;;23.83;55.86;99899.79;1791331;79;25554;-40
2023/08/25 11:28:52;;;;;;;9.75;6.33;;;;;;;23.83;55.84;99897.03;1791318;80;25458;-42
2023/08/25 11:31:25;;;;;;;7.45;6.65;;;;;;;23.83;55.85;99909.45;1791321;79;27327;-41
2023/08/25 11:33:55;;;;;;;12.43;6.70;;;;;;;23.80;56.05;99900.60;1791331;79;25610;-40
2023/08/25 11:36:25;;;;;;;8.90;6.72;;;;;;;23.80;56.16;99897.84;1791317;79;27499;-40
2023/08/25 11:38:51;;;;;;;10.40;6.42;;;;;;;23.81;56.46;99902.18;1791245;79;25598;-40
2023/08/25 11:41:23;;;;;;;11.85;7.30;;;;;;;23.81;56.67;99906.90;1791304;80;25506;-40
2023/08/25 11:43:49;;;;;;;8.30;6.08;;;;;;;23.80;56.63;99904.75;1791304;79;25544;-40
2023/08/25 11:46:19;;;;;;;12.13;6.03;;;;;;;23.79;56.60;99918.95;1791348;80;25537;-42
2023/08/25 11:48:53;;;;;;;9.85;7.28;;;;;;;23.75;56.51;99918.99;1791120;79;28376;-41
2023/08/25 11:51:19;;;;;;;12.13;7.33;;;;;;;23.73;56.53;99923.34;1791026;79;27301;-40
2023/08/25 11:53:46;;;;;;;11.10;6.87;;;;;;;23.66;56.83;99909.00;1791375;80;25567;-40
2023/08/25 11:56:19;;;;;;;10.95;7.72;;;;;;;23.54;57.90;99912.27;1791233;80;25545;-40
2023/08/25 11:58:50;;;;;;;12.20;7.12;;;;;;;23.26;60.64;99912.07;1791386;79;25559;-39
2023/08/25 12:01:17;;;;;;;11.95;7.97;;;;;;;22.79;61.90;99905.23;1791429;80;28199;-40
2023/08/25 12:03:43;;;;;;;10.08;8.18;;;;;;;22.37;62.74;99903.05;1791325;79;25392;-40
2023/08/25 12:06:15;;;;;;;10.48;8.25;;;;;;;22.12;64.33;99913.32;1791318;80;25465;-39
2023/08/25 12:08:43;;;;;;;13.55;8.90;;;;;;;21.95;65.44;99915.70;1791220;80;25541;-39
2023/08/25 12:11:11;;;;;;;13.35;9.45;;;;;;;21.80;66.83;99925.16;1791277;80;25527;-40
2023/08/25 12:13:45;;;;;;;16.65;9.40;;;;;;;21.71;68.70;99917.30;1791359;80;27459;-40
2023/08/25 12:16:17;;;;;;;11.15;9.55;;;;;;;21.68;69.93;99913.17;1791386;80;25782;-39
2023/08/25 12:18:48;;;;;;;12.33;10.03;;;;;;;21.63;71.02;99901.37;1791334;79;25398;-39
2023/08/25 12:21:18;;;;;;;14.07;9.95;;;;;;;21.66;72.65;99892.92;1791346;80;25570;-40
2023/08/25 12:23:45;;;;;;;17.70;11.28;;;;;;;21.74;74.06;99892.31;1791451;79;25462;-40
2023/08/25 12:26:13;;;;;;;17.98;11.22;;;;;;;21.79;74.62;99888.59;1791381;80;27446;-39
2023/08/25 12:28:44;;;;;;;14.05;11.93;;;;;;;21.86;75.46;99887.77;1750257;80;25550;-40
2023/08/25 12:31:10;;;;;;;16.48;10.23;;;;;;;21.97;76.56;99887.77;1791407;79;25194;-40
2023/08/25 12:33:36;;;;;;;17.05;10.20;;;;;;;22.06;76.33;99881.85;1791322;80;25460;-40
2023/08/25 12:36:06;;;;;;;13.65;9.98;;;;;;;22.12;76.40;99881.05;1791398;79;25440;-40
2023/08/25 12:38:34;;;;;;;13.55;9.63;;;;;;;22.16;76.02;99876.30;1791402;80;26758;-39
2023/08/25 12:41:00;;;;;;;12.78;9.20;;;;;;;;;;1791326;80;25360;-39
2023/08/25 12:43:27;;;;;;;11.48;8.50;;;;;;;22.17;75.35;99879.27;1791274;80;25432;-40
2023/08/25 12:45:56;;;;;;;13.48;8.88;;;;;;;22.18;75.25;99880.04;1791361;80;25550;-40
2023/08/25 12:48:26;;;;;;;10.70;9.48;;;;;;;22.17;75.72;99877.89;1791910;79;25455;-42
2023/08/25 12:50:52;;;;;;;11.73;8.83;;;;;;;22.19;75.47;99875.52;1797227;79;27435;-40
2023/08/25 12:53:20;;;;;;;12.00;7.87;;;;;;;22.21;75.65;99880.63;1797038;79;25604;-38
2023/08/25 12:55:49;;;;;;;11.70;7.78;;;;;;;22.20;74.86;99880.42;1797312;79;31865;-38
2023/08/25 12:58:16;;;;;;;12.95;8.55;;;;;;;22.17;74.83;99888.13;1797063;79;25512;-39
2023/08/25 13:00:44;;;;;;;13.67;8.90;;;;;;;22.18;75.11;99888.30;1797458;79;25560;-38
2023/08/25 13:03:10;;;;;;;10.65;7.67;;;;;;;22.26;76.34;99884.95;1797215;79;27411;-38
2023/08/25 13:05:36;;;;;;;11.35;7.78;;;;;;;22.32;76.12;99881.98;1797099;79;25494;-39
2023/08/25 13:08:08;;;;;;;10.85;8.48;;;;;;;22.38;75.73;99884.53;1797099;79;25609;-39
2023/08/25 13:10:35;;;;;;;9.35;7.70;;;;;;;22.47;76.58;99877.22;1797270;79;25559;-39
2023/08/25 13:13:02;;;;;;;13.08;7.58;;;;;;;22.53;76.04;99880.53;1797248;79;25564;-39
2023/08/25 13:15:28;;;;;;;8.75;7.55;;;;;;;22.67;76.96;99883.04;1797092;79;27460;-38
2023/08/25 13:17:54;;;;;;;11.08;7.75;;;;;;;22.83;77.17;99876.47;1797162;79;25570;-39
2023/08/25 13:20:21;;;;;;;8.68;6.75;;;;;;;22.92;76.33;99869.90;1797209;79;25539;-38
2023/08/25 13:22:50;;;;;;;9.48;7.50;;;;;;;23.00;75.69;99864.33;1797186;79;26899;-39
2023/08/25 13:25:19;;;;;;;8.83;7.60;;;;;;;23.07;75.68;99862.92;1809041;79;25479;-38
2023/08/25 13:27:46;;;;;;;9.03;7.10;;;;;;;23.13;75.41;99855.20;1797210;79;28125;-38
2023/08/25 13:30:13;;;;;;;9.93;7.15;;;;;;;23.20;75.03;99849.45;1797096;79;25558;-38
2023/08/25 13:32:40;;;;;;;9.65;7.12;;;;;;;23.23;74.47;99845.89;1797145;79;25568;-38
2023/08/25 13:35:10;;;;;;;10.13;7.22;;;;;;;23.28;74.43;99855.11;1797227;79;25542;-39
2023/08/25 13:37:36;;;;;;;;;;;;;;;23.29;73.97;99852.52;1811783;79;25550;-39
2023/08/25 13:40:11;;;;;;;8.80;6.95;;;;;;;23.29;73.69;99862.17;1797375;79;28514;-40
2023/08/25 13:42:37;;;;;;;10.13;7.95;;;;;;;23.27;73.17;99868.70;1781896;79;25877;-38
2023/08/25 13:45:11;;;;;;;10.95;7.10;;;;;;;23.28;73.58;99866.92;1797131;79;25506;-38
2023/08/25 13:47:37;;;;;;;10.55;7.70;;;;;;;23.29;73.55;99864.36;1797152;79;25531;-38
2023/08/25 13:50:10;;;;;;;9.80;6.55;;;;;;;23.28;73.16;99853.12;1796911;79;25660;-38
2023/08/25 13:52:40;;;;;;;9.28;6.53;;;;;;;23.27;73.25;99852.15;1797122;79;28120;-39
2023/08/25 13:55:11;;;;;;;10.40;6.78;;;;;;;23.23;72.70;99848.64;1796956;79;25728;-39
2023/08/25 13:57:39;;;;;;;7.40;6.55;;;;;;;23.18;72.58;99845.72;1797106;79;25497;-39
2023/08/25 14:00:18;;;;;;;8.43;7.22;;;;;;;23.14;72.46;99840.83;1797021;79;25703;-40
2023/08/25 14:02:46;;;;;;;13.32;10.45;;;;;;;23.09;73.04;99837.91;1797398;79;25396;-40
2023/08/25 14:05:15;;;;;;;16.45;13.83;;;;;;;23.05;73.09;99834.94;1797078;79;27899;-40
2023/08/25 14:07:41;;;;;;;8.70;6.83;;;;;;;23.06;73.16;99842.07;1797132;79;25377;-40
2023/08/25 14:10:12;;;;;;;10.08;6.95;;;;;;;23.03;73.08;99838.11;1797035;79;25418;-39
2023/08/25 14:12:38;;;;;;;11.28;7.12;;;;;;;23.03;73.45;99856.03;1756838;79;25731;-39
2023/08/25 14:15:12;;;;;;;10.20;7.03;;;;;;;23.02;73.17;99852.30;1696566;84;25751;-39
2023/08/25 14:17:40;;;;;;;9.05;7.00;;;;;;;23.04;73.36;99856.84;1696524;84;27927;-39
2023/08/25 14:20:14;;;;;;;10.08;7.17;;;;;;;23.08;73.55;99860.38;1696469;84;25703;-38
2023/08/25 14:22:41;;;;;;;9.08;6.72;;;;;;;23.12;73.51;99861.12;1696530;84;25580;-39
2023/08/25 14:25:13;;;;;;;9.95;7.05;;;;;;;23.21;73.56;99853.19;1696414;84;25674;-39
2023/08/25 14:27:41;;;;;;;7.20;6.50;;;;;;;23.34;73.30;99852.69;1696555;84;25653;-39
2023/08/25 14:30:12;;;;;;;10.58;6.60;;;;;;;23.55;73.38;99841.47;1696605;84;28090;-39
2023/08/25 14:32:38;;;;;;;10.68;7.45;;;;;;;23.71;72.95;99836.00;1696412;84;25481;-40
2023/08/25 14:35:09;;;;;;;10.82;8.08;;;;;;;23.77;71.89;99837.11;1696537;84;25656;-39
2023/08/25 14:37:35;;;;;;;7.20;6.47;;;;;;;23.80;71.56;99830.77;1696619;84;25556;-40
2023/08/25 14:40:02;;;;;;;9.08;6.97;;;;;;;23.97;71.84;99831.22;1696716;84;25719;-40
2023/08/25 14:42:29;;;;;;;13.22;7.60;;;;;;;24.21;71.48;99827.98;1696624;84;27554;-40
2023/08/25 14:44:55;;;;;;;8.05;7.08;;;;;;;24.42;70.10;99828.91;1696538;84;25577;-39
2023/08/25 14:47:24;;;;;;;11.48;7.00;;;;;;;24.47;69.29;99833.97;1696637;84;25510;-41
2023/08/25 14:49:50;;;;;;;9.25;6.80;;;;;;;24.59;69.14;99842.34;1696587;84;25756;-39
2023/08/25 14:52:18;;;;;;;11.40;6.90;;;;;;;24.70;68.18;99831.89;1696741;84;25646;-39
2023/08/25 14:54:45;;;;;;;9.73;6.97;;;;;;;24.83;67.46;99827.20;1696641;84;27663;-40
2023/08/25 14:57:13;;;;;;;8.88;6.60;;;;;;;24.90;67.57;99837.53;1696580;84;25552;-39
2023/08/25 14:59:41;;;;;;;8.35;6.45;;;;;;;25.02;67.01;99837.55;1696682;84;25388;-40
2023/08/25 15:02:07;;;;;;;9.48;6.70;;;;;;;25.15;66.24;99833.61;1696585;84;25691;-40
2023/08/25 15:04:35;;;;;;;9.60;6.40;;;;;;;25.22;65.57;99835.48;1696527;84;25571;-39
2023/08/25 15:07:06;;;;;;;9.25;6.50;;;;;;;25.24;65.33;99829.70;1696615;84;27533;-39
2023/08/25 15:09:32;;;;;;;;;;;;;;;25.28;65.16;99832.43;1698977;84;25582;-39
2023/08/25 15:11:58;;;;;;;10.20;6.22;;;;;;;25.38;65.37;99827.31;1697392;84;25557;-40
2023/08/25 15:14:24;;;;;;;7.45;6.03;;;;;;;25.44;64.96;99826.25;1700608;84;26074;-39
2023/08/25 15:16:51;;;;;;;6.85;6.22;;;;;;;25.51;64.62;99828.28;1719727;83;25454;-40
2023/08/25 15:19:17;;;;;;;7.78;6.83;;;;;;;25.58;64.48;99825.22;1719727;82;28123;-45
2023/08/25 15:21:47;;;;;;;11.60;6.85;;;;;;;25.63;64.41;99835.80;1719631;82;26538;-39
2023/08/25 15:24:13;;;;;;;8.98;6.50;;;;;;;25.66;63.69;99823.86;1719722;83;25481;-40
2023/08/25 15:26:39;;;;;;;8.95;7.03;;;;;;;25.68;63.71;99831.16;1716715;83;25639;-39
2023/08/25 15:29:06;;;;;;;7.47;6.28;;;;;;;25.73;63.56;99828.67;1719662;83;25449;-39
2023/08/25 15:31:32;;;;;;;11.55;6.33;;;;;;;25.78;63.24;99824.64;1719652;83;27350;-44
2023/08/25 15:33:58;;;;;;;10.58;7.03;;;;;;;25.69;63.34;99829.36;1719523;83;25453;-43
2023/08/25 15:36:24;;;;;;;7.60;6.28;;;;;;;25.63;62.96;99826.88;1716681;83;25501;-42
2023/08/25 15:38:52;;;;;;;7.95;6.67;;;;;;;25.58;63.12;99823.22;1719583;83;26078;-45
2023/08/25 15:41:19;;;;;;;11.50;7.40;;;;;;;25.58;63.10;99827.38;1719608;83;25453;-43
2023/08/25 15:43:49;;;;;;;28.87;22.05;;;;;;;25.47;62.79;99826.77;1719688;83;27575;-43
2023/08/25 15:46:17;;;;;;;11.88;8.93;;;;;;;25.36;62.53;99822.81;1719698;83;25944;-46
2023/08/25 15:48:43;;;;;;;8.28;7.10;;;;;;;25.25;62.97;99818.82;1719581;82;25608;-44
2023/08/25 15:51:11;;;;;;;12.53;7.17;;;;;;;25.20;63.03;99818.50;1719604;83;25613;-41
2023/08/25 15:54:08;;;;;;;8.30;7.45;;;;;;;25.14;63.28;99815.44;1719574;83;25469;-41
2023/08/25 15:56:36;;;;;;;12.07;7.50;;;;;;;25.10;62.94;99814.11;1719651;83;27480;-42
2023/08/25 15:59:03;;;;;;;9.73;7.70;;;;;;;25.05;63.29;99807.67;1719518;83;25696;-42
2023/08/25 16:01:29;;;;;;;11.20;7.12;;;;;;;25.03;63.45;99805.94;1719675;83;25552;-42
2023/08/25 16:03:55;;;;;;;13.83;7.97;;;;;;;25.01;63.48;99810.31;1719674;82;25502;-43
2023/08/25 16:06:21;;;;;;;10.85;7.62;;;;;;;24.96;63.71;99808.21;1719634;83;25376;-43
2023/08/25 16:08:48;;;;;;;9.28;7.83;;;;;;;24.93;63.71;99802.73;1719688;83;27471;-42
2023/08/25 16:11:15;;;;;;;11.28;7.72;;;;;;;24.87;63.78;99807.17;1719634;82;25561;-43
2023/08/25 16:13:42;;;;;;;10.03;7.12;;;;;;;24.82;64.10;99803.49;1724859;82;25375;-43
2023/08/25 16:16:09;;;;;;;26.20;17.92;;;;;;;24.75;64.16;99802.39;1727965;83;25653;-45
2023/08/25 16:18:35;;;;;;;13.30;10.25;;;;;;;24.71;64.47;99803.66;1734847;82;25432;-43
2023/08/25 16:21:05;;;;;;;12.45;8.40;;;;;;;24.66;64.55;99797.99;1734815;82;28086;-42
2023/08/25 16:23:33;;;;;;;;;;;;;;;24.60;64.68;99796.30;1737323;82;25458;-43
2023/08/25 16:26:00;;;;;;;10.80;7.60;;;;;;;24.57;64.99;99789.45;1735038;82;25410;-43
2023/08/25 16:28:28;;;;;;;10.00;7.05;;;;;;;24.50;65.05;99787.53;1735082;82;25839;-43
2023/08/25 16:31:06;;;;;;;12.53;9.60;;;;;;;24.42;65.06;99788.22;1699868;84;25445;-43
2023/08/25 16:33:34;;;;;;;15.55;8.20;;;;;;;24.39;65.23;99795.95;1722778;82;27503;-44
2023/08/25 16:36:03;;;;;;;9.35;8.20;;;;;;;24.32;65.34;99792.52;1748149;81;25606;-43
2023/08/25 16:38:30;;;;;;;13.38;8.73;;;;;;;24.26;65.82;99790.02;1747789;82;25614;-44
2023/08/25 16:40:56;;;;;;;11.28;7.60;;;;;;;24.18;65.83;99784.59;1722590;82;25610;-43
2023/08/25 16:43:23;;;;;;;9.83;8.53;;;;;;;24.10;66.13;99777.59;1747958;82;25589;-41
2023/08/25 16:45:50;;;;;;;16.55;8.30;;;;;;;24.03;66.37;99781.22;1747995;82;27543;-42
2023/08/25 16:48:16;;;;;;;9.40;7.78;;;;;;;23.96;66.40;99772.25;1747809;82;25404;-42
2023/08/25 16:50:42;;;;;;;12.58;8.28;;;;;;;23.89;66.54;99773.70;1747893;82;25383;-43
2023/08/25 16:53:11;;;;;;;9.00;7.35;;;;;;;23.82;66.80;99773.98;1747955;82;25521;-42
2023/08/25 16:55:39;;;;;;;19.42;9.58;;;;;;;23.75;66.96;99778.18;1748065;82;25450;-47
2023/08/25 16:58:06;;;;;;;14.38;9.18;;;;;;;23.66;67.50;99784.16;1747900;82;28225;-42
2023/08/25 17:00:33;;;;;;;11.78;7.85;;;;;;;23.58;67.85;99786.84;1747855;82;25723;-43
2023/08/25 17:03:00;;;;;;;10.35;8.10;;;;;;;23.53;67.75;99789.23;1747919;82;25785;-41
2023/08/25 17:05:27;;;;;;;13.30;8.53;;;;;;;23.47;67.93;99783.39;1747912;82;25514;-41
2023/08/25 17:07:54;;;;;;;9.53;8.50;;;;;;;23.43;68.26;99788.95;1748021;82;25535;-45
2023/08/25 17:10:21;;;;;;;13.43;7.90;;;;;;;23.39;68.36;99781.89;1747952;82;27499;-41
2023/08/25 17:12:51;;;;;;;10.82;8.33;;;;;;;23.34;68.49;99775.43;1746623;82;25393;-44
2023/08/25 17:15:20;;;;;;;17.67;9.25;;;;;;;23.29;68.58;99784.92;1742082;82;25576;-45
2023/08/25 17:17:47;;;;;;;;;;;;;;;23.23;68.85;99774.16;1745243;82;25606;-42
2023/08/25 17:20:14;;;;;;;11.85;8.38;;;;;;;23.20;69.04;99779.11;1742684;82;25421;-43
2023/08/25 17:22:45;;;;;;;10.58;8.05;;;;;;;23.14;68.76;99784.28;1742636;82;27467;-43
2023/08/25 17:25:12;;;;;;;10.85;7.95;;;;;;;23.09;68.99;99782.74;1742549;82;25434;-41
2023/08/25 17:27:39;;;;;;;13.48;8.60;;;;;;;23.05;69.04;99785.30;1742608;82;25564;-43
2023/08/25 17:30:08;;;;;;;10.80;8.28;;;;;;;23.00;69.09;99792.63;1742527;82;26146;-42
2023/08/25 17:32:36;;;;;;;14.18;8.28;;;;;;;22.93;69.01;99799.78;1742748;82;25473;-42
2023/08/25 17:35:04;;;;;;;12.03;8.08;;;;;;;22.87;69.50;99792.34;1742678;82;27599;-42
2023/08/25 17:37:31;;;;;;;12.77;9.07;;;;;;;22.81;69.88;99791.97;1742780;82;25639;-42
2023/08/25 17:40:03;;;;;;;11.20;8.53;;;;;;;22.75;69.77;99793.61;1742578;82;25478;-42
2023/08/25 17:42:29;;;;;;;12.40;8.55;;;;;;;22.68;70.00;99793.06;1715610;82;25625;-42
2023/08/25 17:44:56;;;;;;;15.78;9.15;;;;;;;22.60;70.29;99792.91;1742652;82;25562;-41
2023/08/25 17:47:23;;;;;;;12.30;9.33;;;;;;;22.53;70.94;99788.82;1742723;82;28141;-41
2023/08/25 17:49:50;;;;;;;16.20;12.00;;;;;;;22.47;71.06;99790.42;1742544;82;25387;-45
2023/08/25 17:52:16;;;;;;;13.55;9.43;;;;;;;22.41;71.17;99790.64;1742568;82;25590;-42
2023/08/25 17:54:43;;;;;;;14.75;9.30;;;;;;;22.34;71.12;99790.11;1742568;82;25664;-43
2023/08/25 17:57:11;;;;;;;12.25;8.90;;;;;;;22.26;71.92;99776.92;1742576;82;25641;-45
2023/08/25 17:59:38;;;;;;;12.58;8.70;;;;;;;22.17;72.04;99772.45;1742560;82;27967;-43
2023/08/25 18:02:04;;;;;;;16.65;9.18;;;;;;;22.10;72.09;99776.02;1742574;82;25613;-45
2023/08/25 18:04:30;;;;;;;10.13;8.70;;;;;;;22.04;72.63;99778.98;1742609;82;25631;-42
2023/08/25 18:06:57;;;;;;;13.88;9.13;;;;;;;21.97;72.54;99783.14;1742578;82;25574;-41
2023/08/25 18:09:23;;;;;;;11.30;8.58;;;;;;;21.90;72.84;99783.95;1742588;82;25654;-43
2023/08/25 18:11:50;;;;;;;11.10;8.53;;;;;;;21.86;73.03;99778.26;1742771;82;26922;-42
2023/08/25 18:14:16;;;;;;;11.57;8.73;;;;;;;21.81;73.49;99784.95;1744401;82;25593;-43
2023/08/25 18:16:45;;;;;;;11.48;8.78;;;;;;;21.74;73.70;99787.16;1745640;82;25436;-43
2023/08/25 18:19:11;;;;;;;12.18;9.28;;;;;;;21.69;73.69;99791.69;1745628;82;25551;-43
2023/08/25 18:21:39;;;;;;;12.78;8.73;;;;;;;21.63;73.90;99789.14;1745698;82;25581;-45
2023/08/25 18:24:07;;;;;;;11.90;8.85;;;;;;;21.60;74.21;99794.05;1745625;82;28080;-45
2023/08/25 18:26:33;;;;;;;12.93;8.70;;;;;;;21.55;74.39;99783.45;1745573;82;25596;-47
2023/08/25 18:29:01;;;;;;;16.15;9.65;;;;;;;21.52;74.55;99781.48;1745686;82;25645;-45
2023/08/25 18:31:30;;;;;;;12.03;9.83;;;;;;;21.47;75.09;99781.31;1745596;82;26029;-44
2023/08/25 18:33:57;;;;;;;16.77;9.33;;;;;;;21.42;75.43;99789.34;1745764;82;25430;-43
2023/08/25 18:36:24;;;;;;;10.35;9.00;;;;;;;21.41;75.40;99788.36;1745638;82;28083;-43
2023/08/25 18:38:50;;;;;;;9.83;8.83;;;;;;;21.36;75.84;99786.78;1745538;82;25761;-45
2023/08/25 18:41:16;;;;;;;12.65;10.38;;;;;;;21.33;75.63;99781.29;1745640;82;25454;-44
2023/08/25 18:43:43;;;;;;;36.48;28.10;;;;;;;21.29;75.84;99782.67;1745622;82;25607;-44
2023/08/25 18:46:09;;;;;;;73.47;60.98;;;;;;;;;;1745665;82;25551;-48
2023/08/25 18:48:36;;;;;;;17.40;13.75;;;;;;;21.21;76.29;99771.47;1745648;82;27589;-42
2023/08/25 18:51:03;;;;;;;228.15;191.10;;;;;;;21.20;76.61;99769.92;1745553;82;25583;-43
2023/08/25 18:53:29;;;;;;;29.85;23.45;;;;;;;21.17;76.68;99756.95;1745608;82;25410;-43
2023/08/25 18:55:56;;;;;;;14.65;11.22;;;;;;;21.14;76.63;99768.13;1745588;82;25512;-45
2023/08/25 18:58:23;;;;;;;11.90;9.80;;;;;;;21.11;76.96;99766.77;1745763;82;25559;-45
2023/08/25 19:00:50;;;;;;;13.20;9.58;;;;;;;21.08;76.97;99764.23;1745665;82;27491;-44
2023/08/25 19:03:20;;;;;;;11.90;8.98;;;;;;;21.04;77.35;99766.17;1745539;81;25398;-43
2023/08/25 19:05:50;;;;;;;14.87;10.00;;;;;;;21.01;77.58;99761.45;1744501;82;25645;-43
2023/08/25 19:08:17;;;;;;;40.23;31.65;;;;;;;20.98;77.99;99757.55;1745806;82;25635;-43
2023/08/25 19:10:44;;;;;;;63.52;51.73;;;;;;;20.95;78.18;99757.55;1745656;82;25583;-45
2023/08/25 19:13:14;;;;;;;26.10;22.48;;;;;;;20.92;78.34;99752.83;1745568;81;28145;-43
2023/08/25 19:15:42;;;;;;;13.68;11.00;;;;;;;20.89;78.36;99749.69;1742648;82;25583;-43
2023/08/25 19:18:10;;;;;;;12.82;9.70;;;;;;;20.87;78.47;99743.80;1742708;82;25630;-44
2023/08/25 19:20:38;;;;;;;13.58;10.93;;;;;;;20.86;78.39;99747.72;1742648;82;26002;-45
2023/08/25 19:23:04;;;;;;;13.90;9.90;;;;;;;20.86;78.94;99749.69;1742737;82;25414;-45
2023/08/25 19:25:30;;;;;;;16.23;10.00;;;;;;;20.83;79.02;99743.00;1742821;82;27489;-45
2023/08/25 19:27:57;;;;;;;19.25;13.15;;;;;;;20.82;79.05;99739.27;1742739;82;25394;-42
2023/08/25 19:30:23;;;;;;;31.97;23.92;;;;;;;20.80;79.22;99736.91;1742719;82;25618;-42
2023/08/25 19:32:49;;;;;;;13.40;10.10;;;;;;;20.81;79.33;99742.61;1742723;82;26031;-43
2023/08/25 19:35:16;;;;;;;14.13;11.18;;;;;;;20.82;79.50;99737.89;1742766;82;25558;-40
2023/08/25 19:37:42;;;;;;;12.37;9.78;;;;;;;20.81;79.54;99730.84;1743044;82;27528;-41
2023/08/25 19:40:11;;;;;;;15.65;12.23;;;;;;;20.82;79.52;99727.70;1742619;82;25619;-42
2023/08/25 19:42:37;;;;;;;37.35;25.15;;;;;;;20.84;79.68;99728.66;1742819;82;25601;-42
2023/08/25 19:45:07;;;;;;;15.48;11.45;;;;;;;20.84;79.52;99726.72;1742631;82;26559;-41
2023/08/25 19:47:35;;;;;;;15.10;9.88;;;;;;;20.86;79.76;99730.45;1742709;82;25566;-43
2023/08/25 19:50:01;;;;;;;13.30;10.93;;;;;;;20.87;79.99;99725.94;1742638;82;27495;-42
2023/08/25 19:52:28;;;;;;;16.70;10.90;;;;;;;20.90;79.81;99729.25;1742597;82;25615;-42
2023/08/25 19:54:54;;;;;;;19.32;11.35;;;;;;;20.94;79.87;99722.38;1742719;82;25412;-41
2023/08/25 19:57:23;;;;;;;13.20;10.20;;;;;;;20.96;79.87;99709.05;1742665;82;26068;-42
2023/08/25 19:59:49;;;;;;;19.48;10.50;;;;;;;20.99;79.83;99712.36;1742703;82;25563;-41
2023/08/25 20:02:17;;;;;;;15.35;10.88;;;;;;;21.00;79.87;99704.32;1742702;82;28052;-42
2023/08/25 20:04:46;;;;;;;15.98;10.88;;;;;;;21.02;79.90;99703.93;1742615;82;25760;-41
2023/08/25 20:07:11;;;;;;;16.00;10.75;;;;;;;21.05;79.76;99705.90;1742329;82;25578;-42
2023/08/25 20:09:38;;;;;;;12.65;9.65;;;;;;;21.07;80.00;99710.41;1742709;82;25666;-42
2023/08/25 20:12:06;;;;;;;15.58;10.65;;;;;;;21.09;79.61;99721.79;1742689;82;25476;-41
2023/08/25 20:14:33;;;;;;;17.62;10.45;;;;;;;21.10;79.66;99722.59;1738364;82;28238;-40
2023/08/25 20:17:00;;;;;;;13.83;9.23;;;;;;;21.11;79.67;99718.65;1727160;83;25479;-41
2023/08/25 20:19:26;;;;;;;13.68;9.73;;;;;;;21.13;79.53;99723.16;1727223;83;25617;-42
2023/08/25 20:21:53;;;;;;;14.00;10.50;;;;;;;21.14;79.55;99726.11;1727161;82;27629;-41
2023/08/25 20:24:19;;;;;;;13.00;10.23;;;;;;;21.14;79.67;99729.64;1727264;82;25430;-41
2023/08/25 20:26:45;;;;;;;14.95;9.85;;;;;;;21.15;79.65;99731.22;1727170;83;27535;-40
2023/08/25 20:29:12;;;;;;;15.35;10.53;;;;;;;21.17;79.57;99728.08;1727142;83;25435;-41
2023/08/25 20:31:39;;;;;;;15.25;11.33;;;;;;;21.19;79.47;99730.61;1727186;82;25383;-41
2023/08/25 20:34:05;;;;;;;10.95;9.40;;;;;;;21.19;79.50;99725.12;1727115;83;25626;-41
2023/08/25 20:36:32;;;;;;;14.68;10.25;;;;;;;21.23;79.47;99727.29;1727193;82;25489;-42
2023/08/25 20:39:00;;;;;;;16.90;10.40;;;;;;;21.27;79.51;99729.43;1727252;83;28234;-40
2023/08/25 20:41:27;;;;;;;13.22;9.78;;;;;;;21.29;79.59;99724.14;1727161;83;25474;-41
2023/08/25 20:43:53;;;;;;;14.03;10.60;;;;;;;21.29;79.30;99720.78;1727255;82;25487;-41
2023/08/25 20:46:20;;;;;;;20.37;10.90;;;;;;;21.31;79.38;99730.02;1727198;83;26173;-41
2023/08/25 20:48:50;;;;;;;18.10;11.40;;;;;;;21.31;79.45;99723.92;1727256;83;25570;-43
2023/08/25 20:51:20;;;;;;;12.98;9.80;;;;;;;21.33;79.34;99729.80;1727269;83;28082;-40
2023/08/25 20:53:48;;;;;;;19.98;11.18;;;;;;;21.35;79.41;99734.91;1727138;82;25567;-39
2023/08/25 20:56:18;;;;;;;14.78;10.23;;;;;;;21.34;79.42;99739.64;1727231;83;25643;-40
2023/08/25 20:58:45;;;;;;;13.28;10.63;;;;;;;21.34;79.33;99741.02;1727236;82;25638;-41
2023/08/25 21:01:11;;;;;;;13.05;10.98;;;;;;;21.37;79.39;99747.70;1727128;83;25580;-42
2023/08/25 21:03:39;;;;;;;22.93;11.50;;;;;;;21.38;79.26;99751.41;1727157;83;27476;-41
2023/08/25 21:06:06;;;;;;;35.43;26.73;;;;;;;21.38;79.23;99750.03;1727134;83;25176;-41
2023/08/25 21:08:34;;;;;;;17.57;12.53;;;;;;;21.39;79.54;99743.96;1727199;83;25389;-41
2023/08/25 21:11:01;;;;;;;15.08;11.18;;;;;;;21.39;79.45;99742.59;1727080;83;26333;-39
2023/08/25 21:13:27;;;;;;;21.95;12.35;;;;;;;21.39;79.48;99745.34;1727188;83;25397;-39
2023/08/25 21:15:55;;;;;;;16.85;11.48;;;;;;;21.40;79.31;99746.31;1720996;83;27567;-39
2023/08/25 21:18:22;;;;;;;18.70;11.33;;;;;;;21.41;79.40;99749.25;1719591;83;25632;-39
2023/08/25 21:20:54;;;;;;;12.78;10.60;;;;;;;21.41;79.34;99756.13;1719681;83;25541;-39